createdAt,value
2022-08-05T00:00:16.533Z,40.77
2022-08-05T00:01:21.023Z,40.61
2022-08-05T00:02:16.171Z,40.77
2022-08-05T00:03:15.460Z,40.61
2022-08-05T00:04:15.059Z,40.61
2022-08-05T00:05:27.221Z,40.77
2022-08-05T00:06:28.991Z,40.93
2022-08-05T00:07:27.039Z,40.44
2022-08-05T00:08:32.615Z,39.96
2022-08-05T00:09:19.562Z,40.61
2022-08-05T00:10:14.992Z,40.44
2022-08-05T00:11:23.745Z,40.28
2022-08-05T00:12:15.943Z,40.77
2022-08-05T00:13:18.674Z,40.44
2022-08-05T00:14:17.061Z,40.44
2022-08-05T00:15:55.015Z,40.44
2022-08-05T00:16:16.021Z,40.44
2022-08-05T00:17:18.645Z,40.44
2022-08-05T00:18:21.873Z,40.77
2022-08-05T00:19:15.909Z,40.44
2022-08-05T00:20:14.942Z,40.61
2022-08-05T00:21:15.905Z,40.61
2022-08-05T00:22:14.913Z,40.12
2022-08-05T00:23:14.916Z,40.77
2022-08-05T00:24:16.348Z,40.61
2022-08-05T00:25:16.392Z,40.61
2022-08-05T00:26:14.866Z,40.44
2022-08-05T00:27:16.870Z,40.61
2022-08-05T00:28:14.858Z,40.77
2022-08-05T00:29:15.863Z,40.93
2022-08-05T00:30:14.826Z,40.77
2022-08-05T00:31:14.821Z,40.12
2022-08-05T00:32:15.802Z,40.28
2022-08-05T00:34:41.974Z,40.28
2022-08-05T00:34:56.799Z,40.12
2022-08-05T00:35:15.817Z,40.61
2022-08-05T00:36:18.522Z,40.77
2022-08-05T00:37:15.811Z,40.44
2022-08-05T00:38:14.794Z,40.28
2022-08-05T00:39:14.816Z,40.12
2022-08-05T00:40:14.791Z,40.44
2022-08-05T00:41:14.817Z,39.80
2022-08-05T00:42:31.659Z,39.96
2022-08-05T00:43:15.735Z,39.80
2022-08-05T00:44:15.799Z,40.77
2022-08-05T00:45:14.764Z,41.09
2022-08-05T00:46:14.739Z,40.77
2022-08-05T00:47:14.729Z,40.44
2022-08-05T00:48:14.756Z,41.09
2022-08-05T00:49:14.822Z,41.09
2022-08-05T00:50:14.751Z,40.28
2022-08-05T00:51:51.504Z,40.28
2022-08-05T00:52:15.697Z,39.80
2022-08-05T00:54:00.791Z,39.48
2022-08-05T00:54:15.721Z,39.80
2022-08-05T00:55:14.917Z,39.48
2022-08-05T00:56:14.696Z,39.48
2022-08-05T00:57:14.774Z,39.96
2022-08-05T00:58:14.669Z,39.96
2022-08-05T00:59:14.680Z,40.12
2022-08-05T01:00:14.626Z,41.09
2022-08-05T01:01:14.770Z,39.96
2022-08-05T01:02:14.627Z,39.96
2022-08-05T01:03:22.316Z,40.28
2022-08-05T01:04:15.771Z,39.80
2022-08-05T01:05:14.617Z,39.96
2022-08-05T01:06:15.524Z,39.80
2022-08-05T01:07:14.654Z,39.48
2022-08-05T01:08:40.291Z,39.48
2022-08-05T01:09:15.587Z,39.48
2022-08-05T01:10:14.592Z,39.48
2022-08-05T01:11:14.616Z,40.61
2022-08-05T01:12:18.735Z,39.80
2022-08-05T01:13:22.192Z,39.96
2022-08-05T01:14:15.799Z,39.64
2022-08-05T01:15:35.594Z,39.64
2022-08-05T01:16:15.559Z,39.64
2022-08-05T01:17:15.623Z,40.93
2022-08-05T01:18:14.561Z,40.44
2022-08-05T01:19:14.511Z,39.96
2022-08-05T01:20:14.518Z,39.96
2022-08-05T01:21:22.903Z,39.64
2022-08-05T01:22:18.773Z,40.12
2022-08-05T01:23:23.263Z,41.09
2022-08-05T01:24:15.501Z,39.96
2022-08-05T01:25:14.493Z,39.64
2022-08-05T01:26:14.470Z,39.16
2022-08-05T01:27:19.100Z,40.12
2022-08-05T01:28:14.448Z,40.77
2022-08-05T01:29:14.464Z,42.86
2022-08-05T01:30:19.084Z,44.79
2022-08-05T01:31:15.586Z,48.18
2022-08-05T01:32:18.529Z,47.53
2022-08-05T01:33:14.491Z,43.34
2022-08-05T01:34:15.443Z,43.99
2022-08-05T01:35:52.125Z,41.25
2022-08-05T01:36:16.066Z,41.73
2022-08-05T01:37:18.011Z,40.12
2022-08-05T01:38:24.665Z,39.48
2022-08-05T01:39:15.449Z,41.41
2022-08-05T01:40:17.959Z,41.25
2022-08-05T01:41:14.426Z,43.34
2022-08-05T01:42:14.354Z,49.63
2022-08-05T01:43:22.437Z,57.36
2022-08-05T01:44:16.378Z,55.11
2022-08-05T01:45:14.317Z,50.27
2022-08-05T01:46:16.293Z,49.15
2022-08-05T01:47:15.311Z,49.95
2022-08-05T01:48:14.300Z,52.37
2022-08-05T01:49:23.972Z,53.33
2022-08-05T01:50:15.972Z,53.66
2022-08-05T01:51:14.289Z,53.01
2022-08-05T01:52:17.856Z,52.21
2022-08-05T01:53:14.281Z,52.21
2022-08-05T01:54:15.300Z,52.53
2022-08-05T01:55:14.271Z,50.76
2022-08-05T01:58:09.365Z,49.95
2022-08-05T01:58:09.487Z,49.79
2022-08-05T01:58:15.942Z,49.15
2022-08-05T01:59:15.243Z,48.18
2022-08-05T02:00:14.247Z,48.18
2022-08-05T02:01:14.219Z,46.89
2022-08-05T02:02:14.296Z,46.25
2022-08-05T02:03:24.286Z,46.89
2022-08-05T02:04:15.190Z,46.08
2022-08-05T02:05:14.230Z,45.12
2022-08-05T02:06:33.450Z,45.76
2022-08-05T02:07:21.666Z,45.28
2022-08-05T02:08:15.164Z,45.12
2022-08-05T02:09:16.455Z,46.89
2022-08-05T02:10:17.297Z,46.25
2022-08-05T02:11:14.136Z,43.99
2022-08-05T02:12:15.160Z,44.96
2022-08-05T02:13:16.119Z,47.05
2022-08-05T02:14:14.142Z,48.50
2022-08-05T02:15:14.126Z,46.25
2022-08-05T02:16:16.446Z,45.28
2022-08-05T02:17:29.955Z,43.34
2022-08-05T02:18:33.259Z,42.22
2022-08-05T02:19:15.140Z,42.54
2022-08-05T02:20:14.105Z,42.06
2022-08-05T02:21:15.563Z,41.89
2022-08-05T02:22:25.624Z,42.54
2022-08-05T02:23:15.077Z,42.06
2022-08-05T02:24:14.073Z,42.38
2022-08-05T02:25:14.073Z,41.57
2022-08-05T02:26:14.087Z,42.38
2022-08-05T02:27:14.038Z,41.73
2022-08-05T02:28:14.098Z,42.22
2022-08-05T02:29:21.688Z,46.08
2022-08-05T02:30:15.043Z,43.34
2022-08-05T02:31:14.849Z,47.05
2022-08-05T02:32:19.818Z,48.66
2022-08-05T02:33:15.021Z,47.05
2022-08-05T02:34:15.009Z,45.76
2022-08-05T02:35:14.539Z,44.31
2022-08-05T02:36:15.623Z,43.83
2022-08-05T02:37:13.966Z,43.99
2022-08-05T02:38:19.365Z,41.41
2022-08-05T02:39:15.030Z,41.73
2022-08-05T02:40:13.967Z,41.41
2022-08-05T02:41:17.233Z,40.12
2022-08-05T02:42:22.506Z,40.93
2022-08-05T02:43:15.356Z,40.93
2022-08-05T02:44:14.966Z,42.70
2022-08-05T02:45:13.901Z,40.61
2022-08-05T02:46:16.445Z,41.25
2022-08-05T02:47:13.935Z,42.22
2022-08-05T02:48:13.894Z,40.28
2022-08-05T02:49:13.923Z,40.12
2022-08-05T02:50:13.902Z,40.12
2022-08-05T02:51:13.851Z,39.48
2022-08-05T02:52:30.262Z,41.41
2022-08-05T02:53:18.876Z,43.02
2022-08-05T02:54:36.532Z,40.28
2022-08-05T02:55:14.891Z,40.44
2022-08-05T02:56:18.633Z,40.93
2022-08-05T02:58:11.485Z,40.61
2022-08-05T02:58:14.896Z,39.80
2022-08-05T02:59:13.818Z,40.12
2022-08-05T03:00:13.836Z,39.64
2022-08-05T03:01:13.849Z,40.77
2022-08-05T03:02:13.826Z,39.48
2022-08-05T03:03:13.799Z,40.61
2022-08-05T03:04:14.491Z,40.77
2022-08-05T03:05:13.815Z,39.64
2022-08-05T03:06:56.560Z,38.19
2022-08-05T03:07:24.722Z,40.61
2022-08-05T03:08:15.041Z,39.64
2022-08-05T03:09:15.913Z,41.09
2022-08-05T03:10:13.752Z,40.12
2022-08-05T03:11:57.093Z,40.44
2022-08-05T03:12:14.720Z,39.64
2022-08-05T03:13:16.880Z,39.64
2022-08-05T03:14:13.875Z,38.99
2022-08-05T03:15:13.754Z,38.03
2022-08-05T03:16:15.656Z,38.51
2022-08-05T03:17:13.682Z,38.19
2022-08-05T03:18:13.694Z,39.32
2022-08-05T03:19:24.714Z,38.51
2022-08-05T03:20:14.689Z,39.96
2022-08-05T03:21:13.905Z,39.32
2022-08-05T03:22:16.556Z,38.83
2022-08-05T03:23:14.668Z,38.03
2022-08-05T03:24:13.677Z,42.22
2022-08-05T03:25:32.552Z,38.83
2022-08-05T03:26:30.873Z,39.16
2022-08-05T03:27:14.653Z,39.64
2022-08-05T03:28:13.971Z,39.80
2022-08-05T03:29:17.320Z,39.80
2022-08-05T03:30:13.593Z,40.93
2022-08-05T03:31:18.331Z,38.83
2022-08-05T03:32:14.646Z,39.80
2022-08-05T03:33:13.609Z,39.64
2022-08-05T03:34:13.569Z,38.99
2022-08-05T03:35:13.564Z,38.99
2022-08-05T03:36:13.567Z,40.12
2022-08-05T03:37:13.594Z,38.51
2022-08-05T03:38:14.557Z,38.99
2022-08-05T03:39:20.127Z,39.16
2022-08-05T03:40:15.459Z,38.83
2022-08-05T03:41:14.538Z,40.28
2022-08-05T03:42:13.536Z,40.12
2022-08-05T03:43:59.294Z,39.16
2022-08-05T03:44:19.868Z,38.51
2022-08-05T03:45:21.778Z,39.16
2022-08-05T03:46:14.507Z,39.32
2022-08-05T03:47:13.528Z,39.16
2022-08-05T03:48:13.535Z,38.83
2022-08-05T03:49:14.981Z,39.32
2022-08-05T03:50:13.478Z,39.48
2022-08-05T03:52:38.009Z,40.12
2022-08-05T03:52:38.144Z,39.80
2022-08-05T03:55:33.995Z,40.28
2022-08-05T03:56:01.222Z,39.48
2022-08-05T03:56:04.837Z,38.83
2022-08-05T03:56:27.773Z,38.35
2022-08-05T03:57:34.270Z,39.32
2022-08-05T03:58:14.434Z,39.64
2022-08-05T03:59:13.441Z,40.12
2022-08-05T04:00:15.465Z,45.44
2022-08-05T04:01:13.582Z,42.38
2022-08-05T04:02:17.616Z,40.61
2022-08-05T04:03:28.250Z,39.16
2022-08-05T04:04:14.431Z,44.15
2022-08-05T04:05:14.354Z,42.22
2022-08-05T04:06:13.390Z,40.93
2022-08-05T04:07:13.365Z,40.93
2022-08-05T04:08:14.472Z,39.64
2022-08-05T04:09:14.351Z,44.79
2022-08-05T04:10:14.365Z,43.02
2022-08-05T04:11:13.332Z,55.27
2022-08-05T04:12:23.720Z,54.46
2022-08-05T04:13:14.305Z,54.79
2022-08-05T04:14:17.972Z,54.46
2022-08-05T04:15:15.505Z,54.95
2022-08-05T04:16:14.303Z,56.40
2022-08-05T04:17:13.284Z,56.24
2022-08-05T04:18:20.225Z,55.59
2022-08-05T04:19:15.252Z,51.88
2022-08-05T04:20:15.334Z,43.34
2022-08-05T04:21:13.260Z,43.51
2022-08-05T04:22:14.238Z,45.12
2022-08-05T04:23:15.963Z,45.44
2022-08-05T04:24:18.682Z,42.70
2022-08-05T04:25:14.214Z,41.73
2022-08-05T04:26:13.605Z,40.44
2022-08-05T04:27:13.218Z,41.09
2022-08-05T04:28:13.252Z,42.70
2022-08-05T04:29:13.187Z,42.86
2022-08-05T04:30:13.182Z,42.86
2022-08-05T04:31:13.199Z,41.89
2022-08-05T04:32:13.162Z,44.15
2022-08-05T04:33:13.193Z,43.02
2022-08-05T04:34:31.434Z,44.31
2022-08-05T04:35:19.420Z,44.79
2022-08-05T04:36:38.550Z,44.31
2022-08-05T04:37:14.129Z,45.44
2022-08-05T04:38:15.592Z,42.70
2022-08-05T04:39:13.181Z,44.96
2022-08-05T04:40:13.145Z,44.96
2022-08-05T04:41:14.116Z,43.67
2022-08-05T04:42:13.100Z,43.34
2022-08-05T04:43:16.624Z,43.34
2022-08-05T04:44:13.100Z,44.31
2022-08-05T04:45:14.128Z,46.57
2022-08-05T04:46:14.076Z,46.25
2022-08-05T04:47:20.038Z,41.57
2022-08-05T04:48:18.637Z,42.06
2022-08-05T04:49:14.805Z,42.54
2022-08-05T04:50:13.088Z,42.22
2022-08-05T04:51:14.075Z,44.31
2022-08-05T04:52:13.172Z,41.73
2022-08-05T04:53:13.009Z,39.96
2022-08-05T04:54:13.091Z,40.61
2022-08-05T04:55:14.178Z,41.41
2022-08-05T04:56:34.017Z,42.38
2022-08-05T04:57:15.009Z,40.93
2022-08-05T04:58:13.037Z,41.57
2022-08-05T04:59:21.696Z,41.57
2022-08-05T05:00:14.028Z,41.73
2022-08-05T05:01:13.012Z,41.73
2022-08-05T05:02:36.541Z,51.56
2022-08-05T05:03:14.007Z,49.95
2022-08-05T05:04:12.964Z,50.11
2022-08-05T05:05:16.946Z,44.15
2022-08-05T05:06:39.000Z,43.51
2022-08-05T05:07:15.904Z,44.79
2022-08-05T05:08:14.200Z,43.34
2022-08-05T05:09:14.265Z,45.44
2022-08-05T05:10:12.926Z,43.67
2022-08-05T05:11:15.321Z,43.34
2022-08-05T05:12:12.879Z,43.18
2022-08-05T05:13:12.884Z,45.92
2022-08-05T05:14:16.010Z,42.38
2022-08-05T05:15:12.912Z,44.15
2022-08-05T05:16:12.888Z,43.34
2022-08-05T05:17:12.845Z,43.51
2022-08-05T05:18:12.849Z,41.57
2022-08-05T05:19:23.489Z,43.18
2022-08-05T05:20:14.874Z,45.60
2022-08-05T05:21:12.843Z,42.54
2022-08-05T05:22:23.943Z,41.09
2022-08-05T05:23:19.519Z,40.44
2022-08-05T05:24:13.828Z,41.57
2022-08-05T05:25:16.393Z,40.61
2022-08-05T05:26:12.800Z,42.70
2022-08-05T05:27:12.769Z,41.25
2022-08-05T05:28:12.770Z,42.86
2022-08-05T05:29:14.602Z,41.09
2022-08-05T05:30:15.350Z,41.41
2022-08-05T05:31:13.807Z,45.12
2022-08-05T05:32:15.662Z,44.63
2022-08-05T05:33:16.888Z,43.99
2022-08-05T05:34:12.762Z,42.70
2022-08-05T05:35:12.717Z,40.77
2022-08-05T05:36:14.660Z,43.83
2022-08-05T05:37:12.731Z,43.83
2022-08-05T05:38:13.094Z,43.34
2022-08-05T05:39:12.748Z,41.09
2022-08-05T05:40:12.706Z,41.41
2022-08-05T05:41:12.716Z,43.51
2022-08-05T05:42:12.672Z,39.48
2022-08-05T05:43:12.717Z,46.25
2022-08-05T05:44:35.680Z,41.25
2022-08-05T05:45:14.102Z,41.25
2022-08-05T05:46:17.395Z,43.67
2022-08-05T05:47:22.165Z,41.89
2022-08-05T05:48:16.112Z,43.83
2022-08-05T05:49:22.916Z,43.18
2022-08-05T05:50:16.411Z,38.51
2022-08-05T05:51:15.636Z,42.70
2022-08-05T05:52:13.364Z,43.34
2022-08-05T05:53:21.538Z,42.06
2022-08-05T05:54:13.620Z,42.22
2022-08-05T05:55:13.491Z,42.38
2022-08-05T05:56:12.590Z,43.18
2022-08-05T05:57:13.464Z,41.25
2022-08-05T05:58:12.575Z,42.86
2022-08-05T05:59:12.557Z,42.86
2022-08-05T06:00:12.557Z,44.96
2022-08-05T06:01:15.226Z,43.02
2022-08-05T06:02:12.635Z,43.99
2022-08-05T06:03:39.584Z,43.18
2022-08-05T06:04:14.558Z,41.73
2022-08-05T06:05:16.866Z,41.73
2022-08-05T06:06:12.549Z,43.99
2022-08-05T06:07:12.505Z,40.44
2022-08-05T06:08:12.518Z,42.06
2022-08-05T06:09:17.495Z,44.15
2022-08-05T06:10:13.507Z,43.99
2022-08-05T06:11:13.468Z,45.12
2022-08-05T06:12:12.523Z,43.83
2022-08-05T06:13:12.586Z,43.34
2022-08-05T06:14:12.484Z,45.44
2022-08-05T06:15:23.604Z,45.12
2022-08-05T06:16:29.145Z,42.86
2022-08-05T06:17:24.503Z,45.12
2022-08-05T06:18:13.569Z,43.02
2022-08-05T06:19:12.524Z,46.08
2022-08-05T06:20:18.846Z,44.63
2022-08-05T06:21:18.635Z,43.34
2022-08-05T06:22:13.486Z,42.86
2022-08-05T06:23:12.379Z,44.31
2022-08-05T06:24:12.868Z,43.02
2022-08-05T06:25:24.406Z,45.12
2022-08-05T06:26:21.349Z,43.67
2022-08-05T06:28:08.974Z,48.02
2022-08-05T06:28:21.255Z,42.86
2022-08-05T06:29:42.878Z,41.73
2022-08-05T06:30:17.772Z,43.67
2022-08-05T06:31:18.039Z,46.57
2022-08-05T06:32:26.357Z,43.83
2022-08-05T06:33:13.301Z,44.31
2022-08-05T06:34:13.308Z,42.70
2022-08-05T06:35:15.453Z,42.22
2022-08-05T06:36:13.311Z,42.86
2022-08-05T06:37:39.317Z,43.34
2022-08-05T06:38:13.318Z,45.60
2022-08-05T06:39:12.336Z,41.73
2022-08-05T06:40:12.269Z,42.38
2022-08-05T06:41:12.413Z,41.25
2022-08-05T06:42:12.289Z,42.86
2022-08-05T06:43:57.478Z,42.54
2022-08-05T06:44:13.273Z,44.63
2022-08-05T06:45:21.142Z,46.08
2022-08-05T06:46:13.276Z,47.70
2022-08-05T06:47:21.662Z,44.63
2022-08-05T06:48:53.831Z,43.83
2022-08-05T06:49:13.285Z,44.47
2022-08-05T06:50:12.222Z,44.15
2022-08-05T06:51:22.793Z,45.28
2022-08-05T06:52:38.115Z,43.34
2022-08-05T06:53:22.469Z,41.73
2022-08-05T06:54:19.081Z,43.51
2022-08-05T06:55:13.849Z,42.06
2022-08-05T06:56:26.269Z,42.06
2022-08-05T06:57:57.715Z,42.54
2022-08-05T06:58:29.120Z,43.67
2022-08-05T06:59:13.132Z,43.99
2022-08-05T07:00:12.531Z,44.31
2022-08-05T07:01:13.405Z,44.47
2022-08-05T07:02:12.183Z,44.96
2022-08-05T07:03:12.123Z,44.96
2022-08-05T07:04:13.903Z,46.41
2022-08-05T07:05:18.488Z,45.60
2022-08-05T07:06:15.175Z,48.66
2022-08-05T07:07:12.138Z,46.73
2022-08-05T07:08:12.141Z,44.79
2022-08-05T07:09:12.101Z,46.41
2022-08-05T07:10:14.822Z,45.76
2022-08-05T07:11:15.549Z,46.73
2022-08-05T07:12:12.046Z,44.63
2022-08-05T07:13:12.061Z,43.34
2022-08-05T07:14:15.342Z,46.89
2022-08-05T07:15:12.035Z,44.47
2022-08-05T07:16:13.109Z,44.79
2022-08-05T07:17:58.199Z,45.28
2022-08-05T07:18:19.529Z,46.41
2022-08-05T07:19:16.147Z,42.70
2022-08-05T07:21:13.973Z,44.96
2022-08-05T07:22:12.984Z,43.34
2022-08-05T07:23:13.008Z,43.34
2022-08-05T07:24:12.998Z,42.22
2022-08-05T07:25:54.728Z,42.70
2022-08-05T07:26:13.961Z,42.54
2022-08-05T07:27:12.017Z,42.22
2022-08-05T07:28:17.109Z,42.22
2022-08-05T07:29:13.958Z,42.06
2022-08-05T07:30:27.962Z,45.28
2022-08-05T07:31:12.938Z,45.12
2022-08-05T07:32:11.921Z,42.54
2022-08-05T07:33:16.122Z,46.08
2022-08-05T07:34:14.082Z,43.02
2022-08-05T07:36:05.300Z,41.09
2022-08-05T07:36:20.557Z,46.73
2022-08-05T07:37:12.867Z,45.12
2022-08-05T07:38:12.264Z,44.63
2022-08-05T07:39:50.332Z,46.73
2022-08-05T07:40:32.048Z,42.38
2022-08-05T07:42:06.922Z,44.63
2022-08-05T07:42:16.172Z,42.06
2022-08-05T07:43:14.462Z,41.57
2022-08-05T07:44:18.725Z,41.89
2022-08-05T07:45:12.844Z,42.22
2022-08-05T07:46:24.736Z,47.86
2022-08-05T07:47:14.829Z,44.15
2022-08-05T07:48:11.867Z,43.18
2022-08-05T07:49:11.773Z,45.44
2022-08-05T07:50:11.817Z,44.79
2022-08-05T07:51:23.409Z,43.83
2022-08-05T07:52:12.795Z,41.41
2022-08-05T07:53:13.335Z,43.83
2022-08-05T07:54:12.685Z,42.54
2022-08-05T07:55:16.036Z,42.70
2022-08-05T07:57:00.645Z,41.25
2022-08-05T07:57:22.694Z,43.02
2022-08-05T07:58:17.760Z,44.31
2022-08-05T07:59:12.712Z,43.02
2022-08-05T08:00:11.747Z,46.08
2022-08-05T08:01:12.266Z,43.02
2022-08-05T08:02:16.001Z,47.05
2022-08-05T08:03:14.787Z,44.15
2022-08-05T08:04:11.941Z,47.05
2022-08-05T08:05:11.675Z,47.37
2022-08-05T08:06:12.016Z,44.96
2022-08-05T08:07:11.698Z,44.79
2022-08-05T08:08:12.285Z,43.02
2022-08-05T08:09:11.637Z,43.99
2022-08-05T08:10:11.626Z,47.37
2022-08-05T08:11:15.923Z,44.31
2022-08-05T08:12:27.199Z,41.57
2022-08-05T08:13:13.645Z,40.93
2022-08-05T08:14:12.655Z,43.18
2022-08-05T08:15:15.456Z,42.86
2022-08-05T08:16:35.713Z,43.83
2022-08-05T08:17:15.814Z,42.70
2022-08-05T08:18:14.341Z,42.70
2022-08-05T08:20:10.024Z,48.18
2022-08-05T08:20:42.926Z,45.92
2022-08-05T08:21:15.992Z,45.28
2022-08-05T08:22:15.965Z,43.02
2022-08-05T08:24:02.891Z,46.41
2022-08-05T08:24:14.126Z,45.60
2022-08-05T08:25:16.251Z,45.60
2022-08-05T08:26:11.533Z,44.47
2022-08-05T08:27:11.553Z,44.79
2022-08-05T08:28:18.123Z,45.60
2022-08-05T08:29:45.117Z,42.70
2022-08-05T08:30:29.810Z,42.86
2022-08-05T08:31:15.032Z,47.37
2022-08-05T08:32:12.512Z,44.47
2022-08-05T08:33:13.883Z,46.41
2022-08-05T08:34:11.514Z,45.60
2022-08-05T08:35:13.414Z,47.37
2022-08-05T08:36:38.279Z,52.37
2022-08-05T08:37:13.478Z,55.11
2022-08-05T08:38:16.365Z,55.59
2022-08-05T08:39:14.881Z,55.43
2022-08-05T08:40:11.435Z,55.11
2022-08-05T08:41:14.186Z,55.43
2022-08-05T08:42:46.748Z,46.41
2022-08-05T08:45:20.047Z,45.44
2022-08-05T08:45:22.264Z,46.25
2022-08-05T08:45:23.663Z,44.79
2022-08-05T08:46:15.609Z,45.12
2022-08-05T08:47:47.651Z,44.15
2022-08-05T08:48:42.713Z,44.96
2022-08-05T08:50:05.963Z,47.37
2022-08-05T08:50:30.107Z,44.79
2022-08-05T08:52:01.632Z,43.51
2022-08-05T08:52:13.762Z,43.83
2022-08-05T08:53:12.153Z,49.15
2022-08-05T08:54:11.358Z,48.66
2022-08-05T08:55:13.489Z,49.63
2022-08-05T08:56:11.686Z,49.15
2022-08-05T08:57:13.453Z,48.18
2022-08-05T08:58:13.028Z,45.92
2022-08-05T08:59:19.256Z,46.41
2022-08-05T09:00:12.577Z,48.34
2022-08-05T09:01:16.727Z,46.57
2022-08-05T09:02:12.428Z,49.79
2022-08-05T09:03:11.359Z,50.43
2022-08-05T09:04:11.358Z,47.05
2022-08-05T09:05:16.634Z,47.37
2022-08-05T09:06:16.958Z,44.79
2022-08-05T09:07:19.723Z,45.60
2022-08-05T09:08:12.289Z,43.83
2022-08-05T09:09:11.278Z,45.60
2022-08-05T09:10:11.516Z,47.37
2022-08-05T09:11:12.313Z,48.34
2022-08-05T09:12:20.798Z,46.41
2022-08-05T09:13:13.300Z,45.92
2022-08-05T09:14:57.272Z,49.79
2022-08-05T09:15:12.227Z,45.28
2022-08-05T09:16:14.710Z,43.83
2022-08-05T09:17:15.970Z,46.08
2022-08-05T09:18:13.368Z,48.82
2022-08-05T09:19:12.003Z,45.28
2022-08-05T09:20:11.203Z,45.44
2022-08-05T09:21:11.448Z,44.63
2022-08-05T09:22:22.911Z,47.37
2022-08-05T09:23:19.205Z,46.73
2022-08-05T09:24:12.141Z,46.73
2022-08-05T09:25:14.091Z,44.31
2022-08-05T09:26:15.850Z,46.89
2022-08-05T09:27:12.187Z,46.25
2022-08-05T09:28:13.023Z,47.86
2022-08-05T09:29:11.138Z,44.79
2022-08-05T09:30:16.448Z,44.79
2022-08-05T09:31:44.173Z,46.73
2022-08-05T09:32:42.950Z,46.08
2022-08-05T09:33:15.377Z,46.08
2022-08-05T09:34:13.006Z,45.76
2022-08-05T09:35:11.223Z,48.98
2022-08-05T09:36:16.487Z,47.21
2022-08-05T09:37:15.144Z,45.76
2022-08-05T09:38:18.357Z,46.08
2022-08-05T09:39:18.297Z,47.86
2022-08-05T09:40:12.061Z,48.02
2022-08-05T09:41:11.093Z,47.86
2022-08-05T09:42:13.616Z,45.60
2022-08-05T09:43:12.122Z,48.18
2022-08-05T09:44:11.112Z,48.82
2022-08-05T09:46:05.273Z,48.82
2022-08-05T09:46:12.103Z,50.60
2022-08-05T09:47:12.605Z,47.86
2022-08-05T09:48:11.029Z,47.53
2022-08-05T09:49:18.812Z,46.08
2022-08-05T09:50:12.002Z,47.86
2022-08-05T09:51:14.958Z,48.18
2022-08-05T09:52:11.182Z,46.73
2022-08-05T09:53:17.095Z,49.31
2022-08-05T09:54:11.952Z,47.05
2022-08-05T09:55:59.048Z,47.37
2022-08-05T09:56:12.937Z,46.08
2022-08-05T09:57:23.544Z,45.44
2022-08-05T09:58:11.925Z,47.05
2022-08-05T09:59:11.242Z,45.92
2022-08-05T10:00:11.951Z,47.37
2022-08-05T10:01:15.310Z,46.57
2022-08-05T10:02:11.932Z,46.25
2022-08-05T10:03:10.906Z,45.76
2022-08-05T10:04:11.028Z,44.79
2022-08-05T10:05:11.204Z,46.25
2022-08-05T10:06:15.419Z,45.76
2022-08-05T10:07:21.073Z,44.63
2022-08-05T10:08:36.434Z,45.44
2022-08-05T10:09:27.428Z,46.41
2022-08-05T10:10:14.935Z,46.41
2022-08-05T10:11:10.845Z,49.15
2022-08-05T10:12:31.102Z,44.31
2022-08-05T10:13:12.387Z,47.05
2022-08-05T10:14:11.306Z,46.08
2022-08-05T10:15:11.218Z,48.34
2022-08-05T10:16:10.854Z,45.92
2022-08-05T10:17:36.851Z,46.41
2022-08-05T10:18:12.912Z,47.05
2022-08-05T10:19:11.810Z,47.21
2022-08-05T10:20:12.002Z,46.08
2022-08-05T10:21:15.811Z,46.41
2022-08-05T10:22:15.695Z,49.47
2022-08-05T10:23:34.534Z,47.37
2022-08-05T10:24:11.806Z,48.18
2022-08-05T10:25:10.870Z,46.25
2022-08-05T10:26:14.408Z,46.73
2022-08-05T10:27:10.878Z,46.41
2022-08-05T10:28:16.959Z,45.60
2022-08-05T10:29:11.786Z,48.98
2022-08-05T10:32:48.751Z,46.41
2022-08-05T10:32:49.008Z,46.57
2022-08-05T10:32:54.991Z,49.15
2022-08-05T10:33:14.945Z,47.05
2022-08-05T10:34:10.745Z,48.02
2022-08-05T10:35:10.791Z,47.05
2022-08-05T10:36:10.941Z,47.53
2022-08-05T10:37:10.742Z,45.92
2022-08-05T10:38:11.729Z,46.89
2022-08-05T10:39:15.002Z,46.25
2022-08-05T10:40:17.895Z,47.21
2022-08-05T10:41:12.387Z,44.47
2022-08-05T10:42:11.409Z,44.31
2022-08-05T10:43:11.109Z,47.21
2022-08-05T10:44:10.693Z,45.92
2022-08-05T10:45:23.275Z,49.15
2022-08-05T10:46:11.864Z,44.96
2022-08-05T10:47:26.127Z,46.25
2022-08-05T10:48:29.835Z,47.53
2022-08-05T10:49:16.738Z,47.05
2022-08-05T10:50:32.108Z,47.21
2022-08-05T10:51:22.115Z,46.89
2022-08-05T10:52:11.708Z,46.89
2022-08-05T10:53:11.651Z,47.70
2022-08-05T10:54:28.559Z,47.70
2022-08-05T10:55:11.678Z,48.34
2022-08-05T10:56:14.613Z,45.28
2022-08-05T10:57:11.636Z,42.86
2022-08-05T10:58:11.247Z,44.31
2022-08-05T11:00:01.192Z,43.18
2022-08-05T11:00:14.773Z,43.02
2022-08-05T11:01:12.572Z,46.73
2022-08-05T11:02:14.521Z,44.63
2022-08-05T11:03:23.042Z,46.08
2022-08-05T11:04:11.628Z,45.28
2022-08-05T11:05:10.660Z,45.44
2022-08-05T11:06:15.006Z,43.99
2022-08-05T11:07:11.559Z,47.37
2022-08-05T11:08:36.714Z,48.02
2022-08-05T11:09:13.221Z,45.60
2022-08-05T11:10:10.610Z,45.28
2022-08-05T11:11:16.595Z,44.31
2022-08-05T11:12:12.534Z,45.44
2022-08-05T11:13:10.563Z,47.21
2022-08-05T11:14:10.517Z,47.86
2022-08-05T11:15:19.004Z,45.60
2022-08-05T11:16:11.493Z,45.76
2022-08-05T11:17:58.089Z,46.73
2022-08-05T11:18:12.657Z,46.08
2022-08-05T11:20:17.397Z,44.47
2022-08-05T11:20:18.413Z,46.73
2022-08-05T11:21:12.124Z,47.05
2022-08-05T11:22:10.499Z,46.25
2022-08-05T11:23:10.579Z,48.34
2022-08-05T11:24:29.791Z,46.25
2022-08-05T11:26:02.931Z,46.89
2022-08-05T11:26:11.456Z,45.76
2022-08-05T11:27:10.424Z,44.31
2022-08-05T11:28:10.405Z,44.79
2022-08-05T11:29:13.730Z,43.99
2022-08-05T11:30:10.536Z,44.63
2022-08-05T11:31:10.453Z,45.92
2022-08-05T11:32:10.415Z,45.76
2022-08-05T11:33:13.711Z,45.44
2022-08-05T11:34:14.808Z,45.28
2022-08-05T11:35:10.373Z,46.41
2022-08-05T11:36:11.432Z,44.79
2022-08-05T11:38:28.187Z,46.89
2022-08-05T11:38:29.890Z,47.86
2022-08-05T11:39:12.406Z,47.05
2022-08-05T11:40:10.375Z,46.25
2022-08-05T11:41:34.445Z,45.76
2022-08-05T11:42:11.366Z,46.57
2022-08-05T11:43:11.368Z,47.21
2022-08-05T11:44:10.437Z,47.53
2022-08-05T11:45:14.420Z,47.53
2022-08-05T11:46:30.749Z,45.44
2022-08-05T11:47:15.246Z,47.86
2022-08-05T11:48:11.605Z,46.25
2022-08-05T11:49:10.345Z,47.37
2022-08-05T11:50:10.364Z,45.76
2022-08-05T11:51:10.829Z,45.76
2022-08-05T11:52:11.839Z,45.60
2022-08-05T11:53:10.379Z,45.44
2022-08-05T11:54:10.249Z,46.08
2022-08-05T11:55:10.691Z,45.92
2022-08-05T11:56:11.398Z,46.73
2022-08-05T11:57:25.425Z,44.31
2022-08-05T11:58:12.112Z,45.12
2022-08-05T11:59:13.776Z,45.44
2022-08-05T12:00:10.230Z,45.76
2022-08-05T12:01:10.442Z,44.79
2022-08-05T12:02:24.232Z,44.79
2022-08-05T12:03:11.427Z,44.63
2022-08-05T12:04:10.259Z,46.41
2022-08-05T12:05:18.047Z,43.34
2022-08-05T12:06:11.196Z,43.83
2022-08-05T12:07:10.273Z,44.63
2022-08-05T12:08:11.562Z,44.96
2022-08-05T12:09:20.057Z,46.41
2022-08-05T12:10:11.499Z,46.08
2022-08-05T12:11:10.189Z,44.79
2022-08-05T12:12:11.213Z,44.96
2022-08-05T12:13:16.935Z,46.73
2022-08-05T12:14:11.158Z,44.96
2022-08-05T12:15:13.884Z,45.12
2022-08-05T12:16:15.098Z,45.12
2022-08-05T12:18:02.738Z,47.21
2022-08-05T12:18:12.254Z,43.02
2022-08-05T12:19:10.114Z,43.02
2022-08-05T12:20:25.340Z,43.02
2022-08-05T12:21:11.170Z,43.34
2022-08-05T12:22:10.201Z,45.12
2022-08-05T12:23:10.202Z,45.60
2022-08-05T12:24:10.115Z,46.41
2022-08-05T12:25:10.084Z,45.44
2022-08-05T12:26:10.175Z,46.08
2022-08-05T12:27:25.034Z,44.63
2022-08-05T12:28:11.112Z,44.31
2022-08-05T12:29:16.116Z,46.89
2022-08-05T12:30:15.388Z,43.34
2022-08-05T12:31:10.068Z,44.79
2022-08-05T12:32:10.108Z,43.34
2022-08-05T12:33:27.840Z,43.67
2022-08-05T12:34:20.630Z,43.67
2022-08-05T12:35:11.065Z,44.79
2022-08-05T12:36:11.084Z,44.31
2022-08-05T12:37:10.057Z,44.63
2022-08-05T12:38:10.974Z,45.44
2022-08-05T12:39:10.040Z,44.96
2022-08-05T12:40:10.892Z,47.05
2022-08-05T12:41:13.459Z,47.53
2022-08-05T12:42:14.887Z,45.60
2022-08-05T12:43:09.956Z,45.92
2022-08-05T12:44:11.679Z,46.57
2022-08-05T12:45:09.937Z,47.37
2022-08-05T12:46:12.493Z,45.12
2022-08-05T12:47:12.532Z,47.70
2022-08-05T12:48:26.871Z,47.37
2022-08-05T12:49:13.617Z,48.66
2022-08-05T12:50:10.473Z,44.96
2022-08-05T12:52:11.190Z,45.44
2022-08-05T12:52:17.562Z,46.57
2022-08-05T12:53:10.920Z,48.18